sensor_id;sensor_type;location;lat;lon;timestamp;P1;durP1;ratioP1;P2;durP2;ratioP2
78296;SDS011;67555;47.660;19.622;2024-03-02T00:01:41;37.08;;;19.15;;
78296;SDS011;67555;47.660;19.622;2024-03-02T00:04:07;33.70;;;14.98;;
78296;SDS011;67555;47.660;19.622;2024-03-02T00:06:33;30.25;;;15.85;;
78296;SDS011;67555;47.660;19.622;2024-03-02T00:08:59;33.97;;;15.68;;
78296;SDS011;67555;47.660;19.622;2024-03-02T00:11:25;31.40;;;15.43;;
78296;SDS011;67555;47.660;19.622;2024-03-02T00:13:52;29.35;;;13.90;;
78296;SDS011;67555;47.660;19.622;2024-03-02T00:16:19;33.38;;;16.35;;
78296;SDS011;67555;47.660;19.622;2024-03-02T00:18:45;29.63;;;14.82;;
78296;SDS011;67555;47.660;19.622;2024-03-02T00:21:10;27.58;;;15.25;;
78296;SDS011;67555;47.660;19.622;2024-03-02T00:23:38;26.60;;;13.32;;
78296;SDS011;67555;47.660;19.622;2024-03-02T00:26:04;25.23;;;13.38;;
78296;SDS011;67555;47.660;19.622;2024-03-02T00:28:31;26.25;;;12.27;;
78296;SDS011;67555;47.660;19.622;2024-03-02T00:30:59;27.40;;;15.02;;
78296;SDS011;67555;47.660;19.622;2024-03-02T00:33:40;26.73;;;13.35;;
78296;SDS011;67555;47.660;19.622;2024-03-02T00:36:06;23.95;;;12.60;;
78296;SDS011;67555;47.660;19.622;2024-03-02T00:38:33;29.65;;;13.90;;
78296;SDS011;67555;47.660;19.622;2024-03-02T00:41:05;25.17;;;13.50;;
78296;SDS011;67555;47.660;19.622;2024-03-02T00:46:13;29.42;;;14.10;;
78296;SDS011;67555;47.660;19.622;2024-03-02T00:51:19;34.72;;;15.60;;
78296;SDS011;67555;47.660;19.622;2024-03-02T00:53:45;24.30;;;13.55;;
78296;SDS011;67555;47.660;19.622;2024-03-02T00:56:11;28.45;;;14.40;;
78296;SDS011;67555;47.660;19.622;2024-03-02T00:58:38;31.48;;;14.43;;
78296;SDS011;67555;47.660;19.622;2024-03-02T01:01:04;26.63;;;14.52;;
78296;SDS011;67555;47.660;19.622;2024-03-02T01:03:31;27.55;;;14.93;;
78296;SDS011;67555;47.660;19.622;2024-03-02T01:05:57;28.98;;;14.65;;
78296;SDS011;67555;47.660;19.622;2024-03-02T01:08:23;26.55;;;13.85;;
78296;SDS011;67555;47.660;19.622;2024-03-02T01:10:49;36.13;;;17.02;;
78296;SDS011;67555;47.660;19.622;2024-03-02T01:13:15;28.52;;;15.02;;
78296;SDS011;67555;47.660;19.622;2024-03-02T01:15:41;32.33;;;15.68;;
78296;SDS011;67555;47.660;19.622;2024-03-02T01:18:06;30.35;;;15.13;;
78296;SDS011;67555;47.660;19.622;2024-03-02T01:20:32;30.20;;;16.50;;
78296;SDS011;67555;47.660;19.622;2024-03-02T01:22:58;28.25;;;15.73;;
78296;SDS011;67555;47.660;19.622;2024-03-02T01:25:24;29.75;;;14.75;;
78296;SDS011;67555;47.660;19.622;2024-03-02T01:27:50;28.05;;;14.13;;
78296;SDS011;67555;47.660;19.622;2024-03-02T01:30:15;27.35;;;14.40;;
78296;SDS011;67555;47.660;19.622;2024-03-02T01:32:41;30.58;;;13.93;;
78296;SDS011;67555;47.660;19.622;2024-03-02T01:35:07;29.15;;;14.85;;
78296;SDS011;67555;47.660;19.622;2024-03-02T01:37:33;31.50;;;14.68;;
78296;SDS011;67555;47.660;19.622;2024-03-02T01:39:59;28.15;;;14.07;;
78296;SDS011;67555;47.660;19.622;2024-03-02T01:42:25;27.42;;;12.95;;
78296;SDS011;67555;47.660;19.622;2024-03-02T01:44:52;25.15;;;12.98;;
78296;SDS011;67555;47.660;19.622;2024-03-02T01:47:17;29.48;;;13.00;;
78296;SDS011;67555;47.660;19.622;2024-03-02T01:49:43;32.35;;;14.23;;
78296;SDS011;67555;47.660;19.622;2024-03-02T01:52:09;25.55;;;13.27;;
78296;SDS011;67555;47.660;19.622;2024-03-02T01:54:36;24.15;;;12.95;;
78296;SDS011;67555;47.660;19.622;2024-03-02T01:57:01;33.95;;;13.23;;
78296;SDS011;67555;47.660;19.622;2024-03-02T01:59:27;24.75;;;12.60;;
78296;SDS011;67555;47.660;19.622;2024-03-02T02:01:53;24.73;;;13.85;;
78296;SDS011;67555;47.660;19.622;2024-03-02T02:04:18;28.58;;;15.20;;
78296;SDS011;67555;47.660;19.622;2024-03-02T02:06:46;26.50;;;13.30;;
78296;SDS011;67555;47.660;19.622;2024-03-02T02:09:12;20.88;;;12.43;;
78296;SDS011;67555;47.660;19.622;2024-03-02T02:11:38;24.02;;;12.35;;
78296;SDS011;67555;47.660;19.622;2024-03-02T02:14:03;25.23;;;12.05;;
78296;SDS011;67555;47.660;19.622;2024-03-02T02:16:31;23.60;;;13.45;;
78296;SDS011;67555;47.660;19.622;2024-03-02T02:18:56;26.23;;;13.57;;
78296;SDS011;67555;47.660;19.622;2024-03-02T02:21:22;27.70;;;11.50;;
78296;SDS011;67555;47.660;19.622;2024-03-02T02:23:48;28.33;;;12.90;;
78296;SDS011;67555;47.660;19.622;2024-03-02T02:26:15;26.05;;;12.57;;
78296;SDS011;67555;47.660;19.622;2024-03-02T02:28:41;25.55;;;13.68;;
78296;SDS011;67555;47.660;19.622;2024-03-02T02:31:12;21.67;;;11.52;;
78296;SDS011;67555;47.660;19.622;2024-03-02T02:33:41;27.77;;;14.00;;
78296;SDS011;67555;47.660;19.622;2024-03-02T02:36:08;26.05;;;13.20;;
78296;SDS011;67555;47.660;19.622;2024-03-02T02:38:36;22.65;;;12.95;;
78296;SDS011;67555;47.660;19.622;2024-03-02T02:41:05;24.08;;;12.98;;
78296;SDS011;67555;47.660;19.622;2024-03-02T02:43:31;24.92;;;11.82;;
78296;SDS011;67555;47.660;19.622;2024-03-02T02:45:57;27.58;;;13.27;;
78296;SDS011;67555;47.660;19.622;2024-03-02T02:48:22;26.35;;;12.82;;
78296;SDS011;67555;47.660;19.622;2024-03-02T02:50:48;23.10;;;11.15;;
78296;SDS011;67555;47.660;19.622;2024-03-02T02:53:14;25.02;;;12.05;;
78296;SDS011;67555;47.660;19.622;2024-03-02T02:55:39;27.08;;;12.82;;
78296;SDS011;67555;47.660;19.622;2024-03-02T02:58:06;20.70;;;12.02;;
78296;SDS011;67555;47.660;19.622;2024-03-02T03:00:32;30.00;;;14.18;;
78296;SDS011;67555;47.660;19.622;2024-03-02T03:02:58;27.13;;;13.05;;
78296;SDS011;67555;47.660;19.622;2024-03-02T03:05:23;28.60;;;13.60;;
78296;SDS011;67555;47.660;19.622;2024-03-02T03:07:49;26.13;;;11.65;;
78296;SDS011;67555;47.660;19.622;2024-03-02T03:10:15;26.45;;;11.93;;
78296;SDS011;67555;47.660;19.622;2024-03-02T03:12:41;17.98;;;10.63;;
78296;SDS011;67555;47.660;19.622;2024-03-02T03:15:08;26.85;;;11.30;;
78296;SDS011;67555;47.660;19.622;2024-03-02T03:17:34;26.63;;;11.73;;
78296;SDS011;67555;47.660;19.622;2024-03-02T03:20:01;24.20;;;12.32;;
78296;SDS011;67555;47.660;19.622;2024-03-02T03:22:28;27.88;;;11.85;;
78296;SDS011;67555;47.660;19.622;2024-03-02T03:24:53;25.25;;;12.93;;
78296;SDS011;67555;47.660;19.622;2024-03-02T03:27:19;27.27;;;12.23;;
78296;SDS011;67555;47.660;19.622;2024-03-02T03:29:45;23.02;;;11.77;;
78296;SDS011;67555;47.660;19.622;2024-03-02T03:32:10;22.25;;;11.65;;
78296;SDS011;67555;47.660;19.622;2024-03-02T03:34:36;28.30;;;11.98;;
78296;SDS011;67555;47.660;19.622;2024-03-02T03:37:02;21.25;;;11.70;;
78296;SDS011;67555;47.660;19.622;2024-03-02T03:39:28;24.30;;;12.23;;
78296;SDS011;67555;47.660;19.622;2024-03-02T03:41:54;22.42;;;11.60;;
78296;SDS011;67555;47.660;19.622;2024-03-02T03:44:20;26.35;;;12.20;;
78296;SDS011;67555;47.660;19.622;2024-03-02T03:46:45;20.05;;;11.48;;
78296;SDS011;67555;47.660;19.622;2024-03-02T03:49:11;18.90;;;10.55;;
78296;SDS011;67555;47.660;19.622;2024-03-02T03:51:37;22.08;;;11.40;;
78296;SDS011;67555;47.660;19.622;2024-03-02T03:54:02;20.58;;;11.80;;
78296;SDS011;67555;47.660;19.622;2024-03-02T03:56:28;20.40;;;12.63;;
78296;SDS011;67555;47.660;19.622;2024-03-02T03:58:54;29.80;;;13.05;;
78296;SDS011;67555;47.660;19.622;2024-03-02T04:01:19;27.08;;;12.70;;
78296;SDS011;67555;47.660;19.622;2024-03-02T04:03:47;21.45;;;11.68;;
78296;SDS011;67555;47.660;19.622;2024-03-02T04:06:13;24.13;;;12.85;;
78296;SDS011;67555;47.660;19.622;2024-03-02T04:08:39;25.42;;;12.75;;
78296;SDS011;67555;47.660;19.622;2024-03-02T04:11:06;19.63;;;11.77;;
78296;SDS011;67555;47.660;19.622;2024-03-02T04:13:33;26.67;;;12.57;;
78296;SDS011;67555;47.660;19.622;2024-03-02T04:15:58;21.13;;;12.82;;
78296;SDS011;67555;47.660;19.622;2024-03-02T04:18:24;27.33;;;12.32;;
78296;SDS011;67555;47.660;19.622;2024-03-02T04:20:50;25.38;;;12.75;;
78296;SDS011;67555;47.660;19.622;2024-03-02T04:23:16;21.55;;;13.40;;
78296;SDS011;67555;47.660;19.622;2024-03-02T04:25:41;24.20;;;12.35;;
78296;SDS011;67555;47.660;19.622;2024-03-02T04:28:07;24.00;;;12.38;;
78296;SDS011;67555;47.660;19.622;2024-03-02T04:30:33;21.33;;;12.15;;
78296;SDS011;67555;47.660;19.622;2024-03-02T04:32:58;28.27;;;12.70;;
78296;SDS011;67555;47.660;19.622;2024-03-02T04:35:24;22.92;;;12.23;;
78296;SDS011;67555;47.660;19.622;2024-03-02T04:37:50;24.40;;;11.95;;
78296;SDS011;67555;47.660;19.622;2024-03-02T04:40:16;21.45;;;12.75;;
78296;SDS011;67555;47.660;19.622;2024-03-02T04:42:42;24.45;;;12.00;;
78296;SDS011;67555;47.660;19.622;2024-03-02T04:45:08;25.15;;;14.02;;
78296;SDS011;67555;47.660;19.622;2024-03-02T04:47:34;22.98;;;12.30;;
78296;SDS011;67555;47.660;19.622;2024-03-02T04:49:59;25.75;;;12.23;;
78296;SDS011;67555;47.660;19.622;2024-03-02T04:52:25;30.30;;;11.82;;
78296;SDS011;67555;47.660;19.622;2024-03-02T04:54:51;24.42;;;12.50;;
78296;SDS011;67555;47.660;19.622;2024-03-02T04:57:41;26.25;;;12.80;;
78296;SDS011;67555;47.660;19.622;2024-03-02T05:00:07;20.67;;;12.88;;
78296;SDS011;67555;47.660;19.622;2024-03-02T05:02:34;22.75;;;12.88;;
78296;SDS011;67555;47.660;19.622;2024-03-02T05:05:00;21.90;;;13.48;;
78296;SDS011;67555;47.660;19.622;2024-03-02T05:07:26;21.85;;;13.05;;
78296;SDS011;67555;47.660;19.622;2024-03-02T05:09:51;25.52;;;11.73;;
78296;SDS011;67555;47.660;19.622;2024-03-02T05:12:17;21.80;;;12.35;;
78296;SDS011;67555;47.660;19.622;2024-03-02T05:15:01;28.35;;;12.98;;
78296;SDS011;67555;47.660;19.622;2024-03-02T05:17:27;21.02;;;12.18;;
78296;SDS011;67555;47.660;19.622;2024-03-02T05:19:53;27.40;;;13.40;;
78296;SDS011;67555;47.660;19.622;2024-03-02T05:22:18;25.48;;;13.77;;
78296;SDS011;67555;47.660;19.622;2024-03-02T05:24:44;26.10;;;13.57;;
78296;SDS011;67555;47.660;19.622;2024-03-02T05:27:09;24.00;;;13.70;;
78296;SDS011;67555;47.660;19.622;2024-03-02T05:29:35;30.23;;;15.45;;
78296;SDS011;67555;47.660;19.622;2024-03-02T05:32:01;28.95;;;13.98;;
78296;SDS011;67555;47.660;19.622;2024-03-02T05:34:26;25.77;;;13.90;;
78296;SDS011;67555;47.660;19.622;2024-03-02T05:36:52;25.42;;;13.63;;
78296;SDS011;67555;47.660;19.622;2024-03-02T05:39:18;25.85;;;12.90;;
78296;SDS011;67555;47.660;19.622;2024-03-02T05:41:44;28.65;;;14.25;;
78296;SDS011;67555;47.660;19.622;2024-03-02T05:44:09;29.83;;;14.27;;
78296;SDS011;67555;47.660;19.622;2024-03-02T05:46:35;26.48;;;14.50;;
78296;SDS011;67555;47.660;19.622;2024-03-02T05:49:01;31.35;;;15.55;;
78296;SDS011;67555;47.660;19.622;2024-03-02T05:51:26;27.17;;;13.23;;
78296;SDS011;67555;47.660;19.622;2024-03-02T05:53:52;34.33;;;14.13;;
78296;SDS011;67555;47.660;19.622;2024-03-02T05:56:18;27.92;;;14.48;;
78296;SDS011;67555;47.660;19.622;2024-03-02T05:58:43;30.75;;;13.88;;
78296;SDS011;67555;47.660;19.622;2024-03-02T06:01:27;26.65;;;13.85;;
78296;SDS011;67555;47.660;19.622;2024-03-02T06:03:57;28.90;;;14.65;;
78296;SDS011;67555;47.660;19.622;2024-03-02T06:06:24;24.00;;;13.50;;
78296;SDS011;67555;47.660;19.622;2024-03-02T06:08:50;34.03;;;15.05;;
78296;SDS011;67555;47.660;19.622;2024-03-02T06:11:16;30.92;;;14.18;;
78296;SDS011;67555;47.660;19.622;2024-03-02T06:13:42;26.65;;;13.60;;
78296;SDS011;67555;47.660;19.622;2024-03-02T06:16:07;28.55;;;14.68;;
78296;SDS011;67555;47.660;19.622;2024-03-02T06:18:33;28.63;;;16.13;;
78296;SDS011;67555;47.660;19.622;2024-03-02T06:20:59;31.20;;;15.10;;
78296;SDS011;67555;47.660;19.622;2024-03-02T06:23:26;25.17;;;14.43;;
78296;SDS011;67555;47.660;19.622;2024-03-02T06:25:54;27.92;;;15.35;;
78296;SDS011;67555;47.660;19.622;2024-03-02T06:28:20;30.67;;;16.00;;
78296;SDS011;67555;47.660;19.622;2024-03-02T06:30:45;30.83;;;15.15;;
78296;SDS011;67555;47.660;19.622;2024-03-02T06:33:11;30.48;;;15.82;;
78296;SDS011;67555;47.660;19.622;2024-03-02T06:35:37;36.95;;;15.88;;
78296;SDS011;67555;47.660;19.622;2024-03-02T06:38:04;32.53;;;14.80;;
78296;SDS011;67555;47.660;19.622;2024-03-02T06:40:29;32.50;;;16.17;;
78296;SDS011;67555;47.660;19.622;2024-03-02T06:42:55;26.75;;;14.52;;
78296;SDS011;67555;47.660;19.622;2024-03-02T06:45:21;24.27;;;14.43;;
78296;SDS011;67555;47.660;19.622;2024-03-02T06:47:46;36.80;;;16.83;;
78296;SDS011;67555;47.660;19.622;2024-03-02T06:50:12;33.75;;;15.80;;
78296;SDS011;67555;47.660;19.622;2024-03-02T06:52:38;30.55;;;16.20;;
78296;SDS011;67555;47.660;19.622;2024-03-02T06:55:03;33.70;;;18.45;;
78296;SDS011;67555;47.660;19.622;2024-03-02T06:57:30;32.35;;;16.90;;
78296;SDS011;67555;47.660;19.622;2024-03-02T06:59:56;42.15;;;18.02;;
78296;SDS011;67555;47.660;19.622;2024-03-02T07:02:24;29.67;;;17.83;;
78296;SDS011;67555;47.660;19.622;2024-03-02T07:04:52;30.90;;;17.63;;
78296;SDS011;67555;47.660;19.622;2024-03-02T07:07:20;37.00;;;19.67;;
78296;SDS011;67555;47.660;19.622;2024-03-02T07:09:46;38.55;;;20.70;;
78296;SDS011;67555;47.660;19.622;2024-03-02T07:12:13;33.65;;;17.20;;
78296;SDS011;67555;47.660;19.622;2024-03-02T07:14:38;31.20;;;18.08;;
78296;SDS011;67555;47.660;19.622;2024-03-02T07:17:24;26.10;;;15.25;;
78296;SDS011;67555;47.660;19.622;2024-03-02T07:19:50;34.35;;;17.15;;
78296;SDS011;67555;47.660;19.622;2024-03-02T07:22:16;26.58;;;14.68;;
78296;SDS011;67555;47.660;19.622;2024-03-02T07:24:43;28.65;;;14.75;;
78296;SDS011;67555;47.660;19.622;2024-03-02T07:27:10;29.73;;;14.63;;
78296;SDS011;67555;47.660;19.622;2024-03-02T07:29:37;35.92;;;15.63;;
78296;SDS011;67555;47.660;19.622;2024-03-02T07:32:03;27.45;;;14.32;;
78296;SDS011;67555;47.660;19.622;2024-03-02T07:34:29;32.83;;;15.10;;
78296;SDS011;67555;47.660;19.622;2024-03-02T07:36:55;27.25;;;14.88;;
78296;SDS011;67555;47.660;19.622;2024-03-02T07:39:21;30.80;;;15.48;;
78296;SDS011;67555;47.660;19.622;2024-03-02T07:41:48;31.23;;;14.65;;
78296;SDS011;67555;47.660;19.622;2024-03-02T07:44:14;30.95;;;17.08;;
78296;SDS011;67555;47.660;19.622;2024-03-02T07:46:43;27.70;;;15.48;;
78296;SDS011;67555;47.660;19.622;2024-03-02T07:49:09;28.85;;;16.40;;
78296;SDS011;67555;47.660;19.622;2024-03-02T07:51:35;27.38;;;14.63;;
78296;SDS011;67555;47.660;19.622;2024-03-02T07:54:04;27.30;;;14.25;;
78296;SDS011;67555;47.660;19.622;2024-03-02T07:56:29;36.20;;;15.73;;
78296;SDS011;67555;47.660;19.622;2024-03-02T07:58:55;32.65;;;18.27;;
78296;SDS011;67555;47.660;19.622;2024-03-02T08:01:25;32.00;;;15.68;;
78296;SDS011;67555;47.660;19.622;2024-03-02T08:03:52;28.75;;;15.13;;
78296;SDS011;67555;47.660;19.622;2024-03-02T08:06:18;28.70;;;15.80;;
78296;SDS011;67555;47.660;19.622;2024-03-02T08:08:46;30.15;;;14.63;;
78296;SDS011;67555;47.660;19.622;2024-03-02T08:11:12;26.95;;;13.57;;
78296;SDS011;67555;47.660;19.622;2024-03-02T08:13:38;38.63;;;17.85;;
78296;SDS011;67555;47.660;19.622;2024-03-02T08:16:04;28.77;;;12.90;;
78296;SDS011;67555;47.660;19.622;2024-03-02T08:18:32;37.10;;;18.63;;
78296;SDS011;67555;47.660;19.622;2024-03-02T08:20:59;25.98;;;14.15;;
78296;SDS011;67555;47.660;19.622;2024-03-02T08:23:25;23.00;;;12.38;;
78296;SDS011;67555;47.660;19.622;2024-03-02T08:25:50;26.80;;;12.50;;
78296;SDS011;67555;47.660;19.622;2024-03-02T08:28:16;23.92;;;11.48;;
78296;SDS011;67555;47.660;19.622;2024-03-02T08:30:42;24.40;;;12.18;;
78296;SDS011;67555;47.660;19.622;2024-03-02T08:33:08;26.63;;;12.65;;
78296;SDS011;67555;47.660;19.622;2024-03-02T08:35:33;42.95;;;16.75;;
78296;SDS011;67555;47.660;19.622;2024-03-02T08:38:04;17.95;;;11.10;;
78296;SDS011;67555;47.660;19.622;2024-03-02T08:42:55;20.05;;;10.65;;
78296;SDS011;67555;47.660;19.622;2024-03-02T08:45:21;33.70;;;11.68;;
78296;SDS011;67555;47.660;19.622;2024-03-02T08:47:47;22.10;;;12.25;;
78296;SDS011;67555;47.660;19.622;2024-03-02T08:50:13;27.63;;;13.02;;
78296;SDS011;67555;47.660;19.622;2024-03-02T08:52:39;21.83;;;11.77;;
78296;SDS011;67555;47.660;19.622;2024-03-02T08:55:05;19.70;;;9.70;;
78296;SDS011;67555;47.660;19.622;2024-03-02T08:57:32;31.83;;;12.38;;
78296;SDS011;67555;47.660;19.622;2024-03-02T08:59:58;24.67;;;10.73;;
78296;SDS011;67555;47.660;19.622;2024-03-02T09:02:24;14.88;;;9.35;;
78296;SDS011;67555;47.660;19.622;2024-03-02T09:04:50;23.42;;;9.60;;
78296;SDS011;67555;47.660;19.622;2024-03-02T09:07:16;17.35;;;10.10;;
78296;SDS011;67555;47.660;19.622;2024-03-02T09:09:42;18.33;;;9.05;;
78296;SDS011;67555;47.660;19.622;2024-03-02T09:12:08;14.52;;;8.40;;
78296;SDS011;67555;47.660;19.622;2024-03-02T09:14:34;18.08;;;9.10;;
78296;SDS011;67555;47.660;19.622;2024-03-02T09:17:00;19.95;;;10.27;;
78296;SDS011;67555;47.660;19.622;2024-03-02T09:19:26;16.83;;;9.50;;
78296;SDS011;67555;47.660;19.622;2024-03-02T09:21:51;17.08;;;8.68;;
78296;SDS011;67555;47.660;19.622;2024-03-02T09:24:17;13.77;;;8.95;;
78296;SDS011;67555;47.660;19.622;2024-03-02T09:26:43;13.82;;;8.40;;
78296;SDS011;67555;47.660;19.622;2024-03-02T09:29:08;14.07;;;8.07;;
78296;SDS011;67555;47.660;19.622;2024-03-02T09:31:39;18.42;;;8.57;;
78296;SDS011;67555;47.660;19.622;2024-03-02T09:34:06;15.65;;;7.57;;
78296;SDS011;67555;47.660;19.622;2024-03-02T09:36:32;15.02;;;8.02;;
78296;SDS011;67555;47.660;19.622;2024-03-02T09:38:58;20.05;;;8.45;;
78296;SDS011;67555;47.660;19.622;2024-03-02T09:41:24;16.27;;;8.60;;
78296;SDS011;67555;47.660;19.622;2024-03-02T09:43:50;15.80;;;8.23;;
78296;SDS011;67555;47.660;19.622;2024-03-02T09:46:16;12.07;;;7.53;;
78296;SDS011;67555;47.660;19.622;2024-03-02T09:48:43;13.13;;;8.20;;
78296;SDS011;67555;47.660;19.622;2024-03-02T09:51:10;15.23;;;9.30;;
78296;SDS011;67555;47.660;19.622;2024-03-02T09:53:36;15.52;;;9.90;;
78296;SDS011;67555;47.660;19.622;2024-03-02T09:56:02;14.65;;;8.57;;
78296;SDS011;67555;47.660;19.622;2024-03-02T09:58:29;14.65;;;7.90;;
78296;SDS011;67555;47.660;19.622;2024-03-02T10:00:55;17.70;;;9.85;;
78296;SDS011;67555;47.660;19.622;2024-03-02T10:03:22;19.52;;;10.73;;
78296;SDS011;67555;47.660;19.622;2024-03-02T10:05:51;23.38;;;11.88;;
78296;SDS011;67555;47.660;19.622;2024-03-02T10:08:17;22.20;;;11.32;;
78296;SDS011;67555;47.660;19.622;2024-03-02T10:10:42;15.68;;;8.52;;
78296;SDS011;67555;47.660;19.622;2024-03-02T10:13:11;14.85;;;8.25;;
78296;SDS011;67555;47.660;19.622;2024-03-02T10:15:38;14.32;;;8.23;;
78296;SDS011;67555;47.660;19.622;2024-03-02T10:18:11;14.05;;;7.63;;
78296;SDS011;67555;47.660;19.622;2024-03-02T10:20:38;13.27;;;7.60;;
78296;SDS011;67555;47.660;19.622;2024-03-02T10:23:14;14.80;;;8.52;;
78296;SDS011;67555;47.660;19.622;2024-03-02T10:25:41;17.92;;;8.43;;
78296;SDS011;67555;47.660;19.622;2024-03-02T10:28:08;17.10;;;9.00;;
78296;SDS011;67555;47.660;19.622;2024-03-02T10:30:34;20.70;;;9.35;;
78296;SDS011;67555;47.660;19.622;2024-03-02T10:33:03;13.13;;;7.57;;
78296;SDS011;67555;47.660;19.622;2024-03-02T10:35:31;14.05;;;7.93;;
78296;SDS011;67555;47.660;19.622;2024-03-02T10:38:01;12.18;;;7.35;;
78296;SDS011;67555;47.660;19.622;2024-03-02T10:40:29;13.43;;;8.77;;
78296;SDS011;67555;47.660;19.622;2024-03-02T10:42:55;15.48;;;8.20;;
78296;SDS011;67555;47.660;19.622;2024-03-02T10:45:21;15.48;;;9.18;;
78296;SDS011;67555;47.660;19.622;2024-03-02T10:47:48;14.50;;;8.75;;
78296;SDS011;67555;47.660;19.622;2024-03-02T10:50:15;18.85;;;10.10;;
78296;SDS011;67555;47.660;19.622;2024-03-02T10:52:41;14.18;;;7.85;;
78296;SDS011;67555;47.660;19.622;2024-03-02T10:55:07;12.68;;;8.15;;
78296;SDS011;67555;47.660;19.622;2024-03-02T11:00:33;12.02;;;7.68;;
78296;SDS011;67555;47.660;19.622;2024-03-02T11:03:08;15.13;;;8.27;;
78296;SDS011;67555;47.660;19.622;2024-03-02T11:05:36;19.10;;;8.82;;
78296;SDS011;67555;47.660;19.622;2024-03-02T11:08:08;13.13;;;7.95;;
78296;SDS011;67555;47.660;19.622;2024-03-02T11:10:38;13.80;;;7.85;;
78296;SDS011;67555;47.660;19.622;2024-03-02T11:13:16;13.60;;;8.25;;
78296;SDS011;67555;47.660;19.622;2024-03-02T11:16:12;14.25;;;8.75;;
78296;SDS011;67555;47.660;19.622;2024-03-02T11:18:47;15.13;;;8.50;;
78296;SDS011;67555;47.660;19.622;2024-03-02T11:21:14;15.50;;;8.68;;
78296;SDS011;67555;47.660;19.622;2024-03-02T11:23:41;22.88;;;9.00;;
78296;SDS011;67555;47.660;19.622;2024-03-02T11:26:17;15.85;;;9.27;;
78296;SDS011;67555;47.660;19.622;2024-03-02T11:28:47;13.55;;;8.27;;
78296;SDS011;67555;47.660;19.622;2024-03-02T11:31:13;15.93;;;8.25;;
78296;SDS011;67555;47.660;19.622;2024-03-02T11:33:39;13.60;;;8.70;;
78296;SDS011;67555;47.660;19.622;2024-03-02T11:36:08;14.00;;;7.93;;
78296;SDS011;67555;47.660;19.622;2024-03-02T11:38:34;12.68;;;7.03;;
78296;SDS011;67555;47.660;19.622;2024-03-02T11:41:01;17.58;;;9.32;;
78296;SDS011;67555;47.660;19.622;2024-03-02T11:43:32;13.95;;;7.28;;
78296;SDS011;67555;47.660;19.622;2024-03-02T11:45:59;12.85;;;8.38;;
78296;SDS011;67555;47.660;19.622;2024-03-02T11:48:25;13.68;;;8.13;;
78296;SDS011;67555;47.660;19.622;2024-03-02T11:50:51;22.17;;;9.30;;
78296;SDS011;67555;47.660;19.622;2024-03-02T11:53:18;19.77;;;10.15;;
78296;SDS011;67555;47.660;19.622;2024-03-02T11:55:45;15.43;;;8.27;;
78296;SDS011;67555;47.660;19.622;2024-03-02T11:58:11;14.93;;;8.10;;
78296;SDS011;67555;47.660;19.622;2024-03-02T12:00:38;11.20;;;8.07;;
78296;SDS011;67555;47.660;19.622;2024-03-02T12:03:05;22.08;;;9.85;;
78296;SDS011;67555;47.660;19.622;2024-03-02T12:05:32;17.55;;;8.98;;
78296;SDS011;67555;47.660;19.622;2024-03-02T12:08:05;25.75;;;15.52;;
78296;SDS011;67555;47.660;19.622;2024-03-02T12:10:31;36.53;;;17.63;;
78296;SDS011;67555;47.660;19.622;2024-03-02T12:13:02;43.28;;;19.48;;
78296;SDS011;67555;47.660;19.622;2024-03-02T12:15:30;24.73;;;15.13;;
78296;SDS011;67555;47.660;19.622;2024-03-02T12:17:57;23.75;;;13.13;;
78296;SDS011;67555;47.660;19.622;2024-03-02T12:20:24;28.13;;;15.50;;
78296;SDS011;67555;47.660;19.622;2024-03-02T12:22:51;19.92;;;10.80;;
78296;SDS011;67555;47.660;19.622;2024-03-02T12:25:18;18.63;;;9.60;;
78296;SDS011;67555;47.660;19.622;2024-03-02T12:27:45;24.27;;;13.77;;
78296;SDS011;67555;47.660;19.622;2024-03-02T12:30:18;22.13;;;10.82;;
78296;SDS011;67555;47.660;19.622;2024-03-02T12:32:45;19.08;;;8.82;;
78296;SDS011;67555;47.660;19.622;2024-03-02T12:35:11;12.77;;;7.15;;
78296;SDS011;67555;47.660;19.622;2024-03-02T12:40:10;11.77;;;6.13;;
78296;SDS011;67555;47.660;19.622;2024-03-02T12:42:37;11.23;;;6.63;;
78296;SDS011;67555;47.660;19.622;2024-03-02T12:45:03;12.13;;;6.85;;
78296;SDS011;67555;47.660;19.622;2024-03-02T12:47:30;17.58;;;8.95;;
78296;SDS011;67555;47.660;19.622;2024-03-02T12:49:55;46.17;;;15.63;;
78296;SDS011;67555;47.660;19.622;2024-03-02T12:52:22;16.45;;;8.57;;
78296;SDS011;67555;47.660;19.622;2024-03-02T12:54:49;11.95;;;6.80;;
78296;SDS011;67555;47.660;19.622;2024-03-02T12:57:18;9.82;;;6.15;;
78296;SDS011;67555;47.660;19.622;2024-03-02T12:59:47;14.02;;;7.10;;
78296;SDS011;67555;47.660;19.622;2024-03-02T13:04:52;48.95;;;31.25;;
78296;SDS011;67555;47.660;19.622;2024-03-02T13:07:22;22.45;;;16.35;;
78296;SDS011;67555;47.660;19.622;2024-03-02T13:09:52;18.80;;;13.73;;
78296;SDS011;67555;47.660;19.622;2024-03-02T13:12:20;17.77;;;13.80;;
78296;SDS011;67555;47.660;19.622;2024-03-02T13:14:50;16.30;;;10.20;;
78296;SDS011;67555;47.660;19.622;2024-03-02T13:17:20;14.13;;;9.43;;
78296;SDS011;67555;47.660;19.622;2024-03-02T13:19:55;15.70;;;9.73;;
78296;SDS011;67555;47.660;19.622;2024-03-02T13:22:22;18.35;;;8.65;;
78296;SDS011;67555;47.660;19.622;2024-03-02T13:24:48;15.00;;;9.60;;
78296;SDS011;67555;47.660;19.622;2024-03-02T13:27:15;11.82;;;7.00;;
78296;SDS011;67555;47.660;19.622;2024-03-02T13:29:44;13.40;;;8.07;;
78296;SDS011;67555;47.660;19.622;2024-03-02T13:32:12;14.85;;;7.05;;
78296;SDS011;67555;47.660;19.622;2024-03-02T13:34:37;16.02;;;6.57;;
78296;SDS011;67555;47.660;19.622;2024-03-02T13:37:03;12.57;;;5.72;;
78296;SDS011;67555;47.660;19.622;2024-03-02T13:39:30;11.48;;;6.13;;
78296;SDS011;67555;47.660;19.622;2024-03-02T13:41:57;13.38;;;6.55;;
78296;SDS011;67555;47.660;19.622;2024-03-02T13:44:29;13.32;;;7.28;;
78296;SDS011;67555;47.660;19.622;2024-03-02T13:46:55;12.95;;;7.35;;
78296;SDS011;67555;47.660;19.622;2024-03-02T13:49:22;13.32;;;8.88;;
78296;SDS011;67555;47.660;19.622;2024-03-02T13:51:48;13.55;;;7.07;;
78296;SDS011;67555;47.660;19.622;2024-03-02T13:54:14;100.47;;;27.05;;
78296;SDS011;67555;47.660;19.622;2024-03-02T13:56:40;13.77;;;8.05;;
78296;SDS011;67555;47.660;19.622;2024-03-02T13:59:06;16.60;;;7.45;;
78296;SDS011;67555;47.660;19.622;2024-03-02T14:01:32;12.82;;;7.30;;
78296;SDS011;67555;47.660;19.622;2024-03-02T14:03:58;16.50;;;6.35;;
78296;SDS011;67555;47.660;19.622;2024-03-02T14:06:24;14.23;;;6.65;;
78296;SDS011;67555;47.660;19.622;2024-03-02T14:08:52;14.38;;;7.30;;
78296;SDS011;67555;47.660;19.622;2024-03-02T14:11:18;15.75;;;7.65;;
78296;SDS011;67555;47.660;19.622;2024-03-02T14:13:44;15.48;;;6.90;;
78296;SDS011;67555;47.660;19.622;2024-03-02T14:16:14;14.95;;;7.25;;
78296;SDS011;67555;47.660;19.622;2024-03-02T14:18:41;13.45;;;7.00;;
78296;SDS011;67555;47.660;19.622;2024-03-02T14:21:07;11.40;;;7.25;;
78296;SDS011;67555;47.660;19.622;2024-03-02T14:23:33;13.82;;;9.00;;
78296;SDS011;67555;47.660;19.622;2024-03-02T14:25:58;12.52;;;7.43;;
78296;SDS011;67555;47.660;19.622;2024-03-02T14:28:25;16.13;;;7.88;;